Time;durP1;ratioP1;P1;durP2;ratioP2;P2;SDS_P1;SDS_P2;PMS_P1;PMS_P2;Temp;Humidity;BMP_temperature;BMP_pressure;BME280_temperature;BME280_humidity;BME280_pressure;Samples;Min_cycle;Max_cycle;Signal;HPM_P1;HPM_P2
2023/09/14 00:01:35;;;;;;;6.97;6.27;;;;;;;20.51;100.00;98528.22;5062664;23;20573;-87
2023/09/14 00:03:39;;;;;;;9.77;6.67;;;;;;;20.51;100.00;98520.25;5065057;23;21031;-87
2023/09/14 00:05:43;;;;;;;7.70;6.83;;;;;;;20.49;100.00;98521.41;5090072;23;20728;-87
2023/09/14 00:07:46;;;;;;;7.60;6.47;;;;;;;20.49;100.00;98519.59;5064828;23;20596;-87
2023/09/14 00:09:49;;;;;;;8.30;7.30;;;;;;;20.48;100.00;98520.56;5114199;23;20590;-87
2023/09/14 00:11:52;;;;;;;7.90;7.10;;;;;;;20.43;100.00;98522.88;5065106;23;21413;-87
2023/09/14 00:13:56;;;;;;;8.33;7.10;;;;;;;20.46;100.00;98525.22;5089115;23;20645;-87
2023/09/14 00:15:58;;;;;;;9.60;7.63;;;;;;;20.48;100.00;98528.53;5062457;23;20585;-87
2023/09/14 00:18:03;;;;;;;9.10;7.47;;;;;;;20.49;100.00;98522.25;5064666;23;20580;-87
2023/09/14 00:20:09;;;;;;;9.73;7.83;;;;;;;20.51;100.00;98532.69;5088771;23;21135;-87
2023/09/14 00:22:13;;;;;;;9.20;6.90;;;;;;;20.52;100.00;98521.09;5115734;23;20560;-88
2023/09/14 00:24:16;;;;;;;7.90;7.10;;;;;;;20.54;100.00;98527.09;5090197;23;21158;-87
2023/09/14 00:26:19;;;;;;;9.93;7.83;;;;;;;20.52;100.00;98524.59;5088998;23;20627;-87
2023/09/14 00:28:22;;;;;;;8.90;7.80;;;;;;;20.54;100.00;98522.59;5089993;23;20573;-87
2023/09/14 00:30:26;;;;;;;10.03;7.37;;;;;;;20.56;100.00;98523.28;5088353;23;20589;-87
2023/09/14 00:32:29;;;;;;;7.77;6.90;;;;;;;20.59;100.00;98525.63;5112576;23;21156;-87
2023/09/14 00:34:34;;;;;;;8.40;7.20;;;;;;;20.62;99.80;98532.44;5089283;23;20580;-87
2023/09/14 00:36:36;;;;;;;10.00;7.37;;;;;;;20.62;100.00;98535.09;5115764;23;20580;-87
2023/09/14 00:38:39;;;;;;;8.77;7.33;;;;;;;20.62;100.00;98538.56;5089244;23;20597;-87
2023/09/14 00:40:41;;;;;;;8.47;7.60;;;;;;;20.63;100.00;98537.59;5089070;23;20618;-87
2023/09/14 00:42:45;;;;;;;7.83;7.13;;;;;;;20.64;100.00;98530.44;5089200;23;21360;-87
2023/09/14 00:44:48;;;;;;;8.57;7.47;;;;;;;20.63;100.00;98534.09;5113048;23;20589;-87
2023/09/14 00:46:52;;;;;;;7.93;7.13;;;;;;;20.61;99.82;98534.25;5089873;23;20561;-87
2023/09/14 00:48:55;;;;;;;8.10;7.30;;;;;;;20.64;99.90;98539.25;5087500;23;20552;-87
2023/09/14 00:50:59;;;;;;;7.63;6.90;;;;;;;20.64;99.89;98536.59;5113940;23;20924;-87
2023/09/14 00:53:07;;;;;;;7.40;6.70;;;;;;;20.63;100.00;98532.28;5113857;23;20685;-88
2023/09/14 00:55:10;;;;;;;10.47;7.20;;;;;;;20.63;99.11;98532.28;5089334;23;20611;-87
2023/09/14 00:57:13;;;;;;;7.60;6.80;;;;;;;20.63;99.76;98539.41;5086895;23;21551;-87
2023/09/14 00:59:16;;;;;;;8.67;7.77;;;;;;;20.62;100.00;98535.09;5088959;23;20571;-87
2023/09/14 01:01:20;;;;;;;8.77;7.87;;;;;;;20.62;100.00;98546.50;5088996;23;20680;-87
2023/09/14 01:03:24;;;;;;;8.47;7.57;;;;;;;20.59;100.00;98546.00;5089363;23;20572;-87
2023/09/14 01:05:30;;;;;;;8.00;7.13;;;;;;;20.57;100.00;98546.16;5113873;23;21034;-87
2023/09/14 01:07:36;;;;;;;7.93;7.13;;;;;;;20.56;100.00;98544.47;5089267;23;20562;-87
2023/09/14 01:09:39;;;;;;;8.73;6.90;;;;;;;20.54;100.00;98546.47;5087812;23;20997;-87
2023/09/14 01:11:42;;;;;;;10.37;7.63;;;;;;;20.52;100.00;98543.16;5112702;23;20603;-86
2023/09/14 01:13:52;;;;;;;8.20;7.40;;;;;;;20.52;100.00;98551.09;5114610;23;20903;-87
2023/09/14 01:16:00;;;;;;;9.60;7.20;;;;;;;20.51;100.00;98546.78;5089155;23;20934;-86
2023/09/14 01:18:06;;;;;;;8.97;7.50;;;;;;;20.51;100.00;98556.56;5089290;23;20687;-87
2023/09/14 01:20:22;;;;;;;8.30;7.50;;;;;;;20.51;100.00;98551.25;5115133;23;20570;-87
2023/09/14 01:22:38;;;;;;;8.30;7.57;;;;;;;20.50;100.00;98547.75;5086763;23;20679;-87
2023/09/14 01:24:47;;;;;;;9.00;7.00;;;;;;;20.50;100.00;98555.69;5115168;23;20580;-87
2023/09/14 01:26:52;;;;;;;8.30;7.30;;;;;;;20.49;100.00;98551.41;5088176;23;21133;-87
2023/09/14 01:28:56;;;;;;;7.07;6.47;;;;;;;20.50;100.00;98554.88;5114711;23;20659;-86
2023/09/14 01:31:00;;;;;;;8.20;7.40;;;;;;;20.50;100.00;98547.75;5088599;23;20672;-87
2023/09/14 01:33:04;;;;;;;8.83;8.03;;;;;;;20.51;100.00;98554.72;5088923;23;20639;-87
2023/09/14 01:35:08;;;;;;;8.20;6.90;;;;;;;20.47;100.00;98548.06;5089491;23;21115;-87
2023/09/14 01:37:10;;;;;;;8.83;7.80;;;;;;;20.43;98.88;98549.38;5089314;23;20557;-87
2023/09/14 01:39:14;;;;;;;9.03;7.50;;;;;;;20.44;100.00;98550.19;5087678;23;20639;-84
2023/09/14 01:41:17;;;;;;;8.03;7.00;;;;;;;20.43;100.00;98552.03;5087739;23;21125;-84
2023/09/14 01:43:22;;;;;;;8.67;7.17;;;;;;;20.42;100.00;98555.66;5088483;23;20584;-84
2023/09/14 01:45:25;;;;;;;9.83;7.50;;;;;;;20.41;100.00;98551.31;5113690;23;20561;-85
2023/09/14 01:47:28;;;;;;;8.77;7.83;;;;;;;20.41;100.00;98555.81;5087400;23;20579;-84
2023/09/14 01:49:31;;;;;;;8.80;7.40;;;;;;;20.42;100.00;98552.19;5088530;23;20623;-85
2023/09/14 01:51:34;;;;;;;8.60;7.53;;;;;;;20.41;100.00;98556.63;5114898;23;20638;-84
2023/09/14 01:53:37;;;;;;;8.20;7.40;;;;;;;20.36;100.00;98556.25;5087962;23;20677;-85
2023/09/14 01:55:41;;;;;;;8.90;7.73;;;;;;;20.35;100.00;98557.25;5088242;23;20643;-84
2023/09/14 01:57:44;;;;;;;10.23;7.77;;;;;;;20.37;100.00;98557.09;5086609;23;20553;-85
2023/09/14 01:59:51;;;;;;;8.53;7.40;;;;;;;20.38;100.00;98554.28;5088056;23;20838;-85
2023/09/14 02:01:55;;;;;;;7.30;6.60;;;;;;;20.38;100.00;98556.94;5087531;23;20619;-85
2023/09/14 02:03:59;;;;;;;9.03;7.47;;;;;;;20.40;100.00;98557.63;5114615;23;20673;-85
2023/09/14 02:06:02;;;;;;;8.10;7.30;;;;;;;20.40;100.00;98554.13;5088876;23;20588;-85
2023/09/14 02:08:05;;;;;;;8.33;7.47;;;;;;;20.39;100.00;98555.13;5114857;23;21170;-85
2023/09/14 02:10:09;;;;;;;8.70;7.77;;;;;;;20.40;100.00;98547.03;5085986;23;20899;-85
2023/09/14 02:12:12;;;;;;;10.50;7.60;;;;;;;20.39;100.00;98550.66;5087321;23;20561;-85
2023/09/14 02:14:15;;;;;;;8.40;7.60;;;;;;;20.38;100.00;98548.97;5112697;23;20586;-84
2023/09/14 02:16:19;;;;;;;8.37;7.47;;;;;;;20.39;100.00;98560.44;5086829;23;20580;-85
2023/09/14 02:18:23;;;;;;;9.00;8.00;;;;;;;20.38;100.00;98556.94;5087979;23;20579;-85
2023/09/14 02:20:26;;;;;;;8.20;7.40;;;;;;;20.39;100.00;98550.66;5112349;23;20595;-85
2023/09/14 02:22:29;;;;;;;9.57;8.17;;;;;;;20.38;100.00;98554.28;5087729;23;20579;-85
2023/09/14 02:24:33;;;;;;;13.20;6.67;;;;;;;20.40;100.00;98562.06;5087334;23;20557;-85
2023/09/14 02:26:37;;;;;;;8.40;7.20;;;;;;;20.39;100.00;98560.44;5087435;23;20576;-85
2023/09/14 02:28:40;;;;;;;9.17;6.97;;;;;;;20.38;100.00;98559.59;5087259;23;20565;-85
2023/09/14 02:30:42;;;;;;;9.70;7.47;;;;;;;20.39;100.00;98560.44;5085545;23;20580;-85
2023/09/14 02:32:47;;;;;;;10.87;7.90;;;;;;;20.38;100.00;98561.41;5113541;23;20607;-85
2023/09/14 02:34:50;;;;;;;8.20;7.00;;;;;;;20.36;100.00;98558.09;5088176;23;20609;-85
2023/09/14 02:36:54;;;;;;;8.00;7.20;;;;;;;20.34;100.00;98552.94;5087801;23;20587;-85
2023/09/14 02:38:57;;;;;;;8.20;7.00;;;;;;;20.33;100.00;98556.56;5087900;23;20561;-85
2023/09/14 02:41:00;;;;;;;8.43;6.83;;;;;;;20.32;100.00;98558.56;5112780;23;20559;-85
2023/09/14 02:43:04;;;;;;;7.93;7.17;;;;;;;20.30;100.00;98549.91;5087586;23;20580;-86
2023/09/14 02:45:08;;;;;;;9.00;6.80;;;;;;;20.27;100.00;98555.53;5086758;23;20576;-85
2023/09/14 02:47:11;;;;;;;8.40;7.53;;;;;;;20.24;100.00;98551.38;5087847;23;20591;-85
2023/09/14 02:49:17;;;;;;;7.43;6.73;;;;;;;20.20;100.00;98554.47;5111545;23;20577;-85
2023/09/14 02:51:20;;;;;;;8.10;7.30;;;;;;;20.16;100.00;98550.44;5087501;23;20625;-85
2023/09/14 02:53:23;;;;;;;9.83;6.80;;;;;;;20.10;100.00;98548.41;5113392;23;20721;-85
2023/09/14 02:55:28;;;;;;;7.07;6.37;;;;;;;20.04;100.00;98560.47;5087712;23;21102;-84
2023/09/14 02:57:31;;;;;;;7.73;7.00;;;;;;;19.99;100.00;98557.41;5088264;23;20575;-85
2023/09/14 02:59:35;;;;;;;8.00;6.83;;;;;;;19.97;100.00;98558.56;5088659;23;21169;-85
2023/09/14 03:01:38;;;;;;;8.90;7.17;;;;;;;19.92;100.00;98559.03;5088344;23;21004;-86
2023/09/14 03:03:42;;;;;;;7.60;6.80;;;;;;;19.93;100.00;98567.78;5090013;23;21108;-85
2023/09/14 03:05:48;;;;;;;8.37;7.47;;;;;;;19.92;100.00;98572.25;5114679;23;20617;-85
2023/09/14 03:07:51;;;;;;;8.50;7.50;;;;;;;19.93;100.00;98565.13;5115686;23;20924;-84
2023/09/14 03:09:53;;;;;;;7.80;7.10;;;;;;;19.91;100.00;98564.47;5090122;23;20627;-85
2023/09/14 03:11:57;;;;;;;7.90;6.93;;;;;;;19.90;100.00;98568.09;5089695;23;20651;-85
2023/09/14 03:14:00;;;;;;;8.27;7.47;;;;;;;19.89;100.00;98567.25;5090053;23;20616;-84
2023/09/14 03:16:03;;;;;;;7.73;6.90;;;;;;;19.89;100.00;98563.75;5089312;23;20597;-85
2023/09/14 03:18:06;;;;;;;8.23;7.30;;;;;;;19.89;100.00;98566.41;5090192;23;20570;-85
2023/09/14 03:20:10;;;;;;;8.00;7.20;;;;;;;19.86;100.00;98572.03;5089975;23;20582;-85
2023/09/14 03:22:16;;;;;;;8.50;7.33;;;;;;;19.85;100.00;98573.81;5088157;23;20713;-85
2023/09/14 03:24:19;;;;;;;8.43;7.03;;;;;;;19.83;100.00;98577.59;5114633;23;20574;-84
2023/09/14 03:26:23;;;;;;;7.97;7.00;;;;;;;19.80;100.00;98572.59;5089382;23;20581;-84
2023/09/14 03:28:26;;;;;;;9.13;7.33;;;;;;;19.79;100.00;98578.88;5089821;23;20571;-84
2023/09/14 03:30:29;;;;;;;8.23;7.43;;;;;;;19.76;100.00;98579.16;5089467;23;20582;-86
2023/09/14 03:32:33;;;;;;;8.43;7.13;;;;;;;19.74;100.00;98570.56;5089367;23;20566;-85
2023/09/14 03:34:36;;;;;;;7.87;6.07;;;;;;;19.73;100.00;98571.53;5113798;23;20664;-86
2023/09/14 03:36:39;;;;;;;7.53;6.30;;;;;;;19.71;100.00;98573.50;5088587;23;20625;-85
2023/09/14 03:38:44;;;;;;;7.40;6.50;;;;;;;19.70;100.00;98582.41;5087788;23;20601;-85
2023/09/14 03:40:48;;;;;;;7.30;6.60;;;;;;;19.70;100.00;98573.66;5088639;23;20662;-85
2023/09/14 03:42:51;;;;;;;7.47;6.70;;;;;;;19.68;100.00;98579.09;5089292;23;20563;-86
2023/09/14 03:44:54;;;;;;;7.43;6.63;;;;;;;19.66;100.00;98585.50;5114126;23;20591;-86
2023/09/14 03:46:57;;;;;;;7.50;6.40;;;;;;;19.64;100.00;98590.94;5089280;23;20575;-85
2023/09/14 03:49:02;;;;;;;10.13;8.30;;;;;;;19.63;100.00;98589.28;5113884;23;21170;-86
2023/09/14 03:51:04;;;;;;;8.97;8.07;;;;;;;19.61;100.00;98588.59;5089337;23;21108;-85
2023/09/14 03:53:08;;;;;;;8.20;7.30;;;;;;;19.62;100.00;98597.34;5090046;23;20567;-85
2023/09/14 03:55:13;;;;;;;8.90;7.53;;;;;;;19.60;100.00;98586.91;5089040;23;20594;-85
2023/09/14 03:57:16;;;;;;;7.30;6.60;;;;;;;19.59;100.00;98595.88;5087680;23;20578;-88
2023/09/14 03:59:19;;;;;;;8.20;7.07;;;;;;;19.60;100.00;98596.69;5088622;23;20583;-87
2023/09/14 04:01:23;;;;;;;6.83;6.17;;;;;;;19.58;100.00;98590.72;5113098;23;20637;-86
2023/09/14 04:03:27;;;;;;;7.57;6.87;;;;;;;19.57;100.00;98597.81;5089036;23;20560;-86
2023/09/14 04:05:30;;;;;;;8.20;7.20;;;;;;;19.55;99.50;98594.47;5088036;23;20683;-86
2023/09/14 04:07:33;;;;;;;8.47;6.90;;;;;;;19.54;100.00;98590.16;5114583;23;20571;-85
2023/09/14 04:09:36;;;;;;;7.77;6.97;;;;;;;19.52;100.00;98592.13;5114026;23;20582;-86
2023/09/14 04:11:41;;;;;;;8.07;5.93;;;;;;;19.52;100.00;98597.41;5088069;23;20582;-85
2023/09/14 04:13:44;;;;;;;8.73;6.97;;;;;;;19.50;100.00;98593.25;5112571;23;20618;-86
2023/09/14 04:15:46;;;;;;;7.53;6.73;;;;;;;19.48;100.00;98598.72;5114977;23;21090;-85
2023/09/14 04:17:49;;;;;;;8.23;7.00;;;;;;;19.46;100.00;98590.06;5089392;23;20610;-85
2023/09/14 04:19:52;;;;;;;6.97;6.27;;;;;;;19.44;99.73;98596.50;5090046;23;20650;-86
2023/09/14 04:21:56;;;;;;;7.47;6.63;;;;;;;19.41;99.91;98597.63;5086531;23;20582;-85
2023/09/14 04:24:02;;;;;;;6.93;6.23;;;;;;;19.39;99.24;98599.59;5115236;23;20605;-85
2023/09/14 04:26:05;;;;;;;7.50;6.80;;;;;;;19.38;100.00;98597.09;5088997;23;20630;-85
2023/09/14 04:28:11;;;;;;;7.27;5.87;;;;;;;19.38;100.00;98597.91;5089574;23;20647;-85
2023/09/14 04:30:14;;;;;;;7.30;6.17;;;;;;;19.36;99.41;98599.03;5087988;23;20579;-85
2023/09/14 04:32:17;;;;;;;6.77;5.90;;;;;;;19.35;100.00;98599.19;5087453;23;20915;-85
2023/09/14 04:34:20;;;;;;;7.27;6.30;;;;;;;19.33;99.14;98601.97;5089493;23;21053;-85
2023/09/14 04:36:23;;;;;;;7.03;6.33;;;;;;;19.31;100.00;98601.28;5114856;23;20621;-86
2023/09/14 04:38:27;;;;;;;8.17;6.30;;;;;;;19.31;100.00;98608.41;5087327;23;20562;-87
2023/09/14 04:40:30;;;;;;;8.27;6.57;;;;;;;19.32;100.00;98612.69;5115094;23;20624;-86
2023/09/14 04:42:33;;;;;;;6.63;6.00;;;;;;;19.30;100.00;98612.84;5089044;23;20693;-86
2023/09/14 04:44:37;;;;;;;6.87;6.17;;;;;;;19.30;100.00;98609.38;5088901;23;20571;-86
2023/09/14 04:46:40;;;;;;;6.87;6.17;;;;;;;19.30;99.99;98609.38;5087566;23;21001;-84
2023/09/14 04:48:44;;;;;;;8.60;6.80;;;;;;;19.27;100.00;98615.78;5088532;23;20575;-85
2023/09/14 04:50:48;;;;;;;7.80;6.57;;;;;;;19.26;100.00;98613.28;5085396;23;20896;-84
2023/09/14 04:52:53;;;;;;;11.60;6.53;;;;;;;19.26;100.00;98623.84;5085048;23;21419;-85
2023/09/14 04:54:56;;;;;;;9.30;7.90;;;;;;;19.24;100.00;98616.06;5088973;23;20665;-86
2023/09/14 04:56:59;;;;;;;12.60;7.50;;;;;;;19.22;100.00;98618.03;5087046;23;21014;-85
2023/09/14 04:59:04;;;;;;;10.70;7.37;;;;;;;19.21;100.00;98621.66;5088150;23;20971;-85
2023/09/14 05:01:09;;;;;;;8.60;6.70;;;;;;;19.20;100.00;98619.16;5088041;23;20558;-85
2023/09/14 05:03:12;;;;;;;10.47;6.90;;;;;;;19.17;100.00;98624.72;5087938;23;20555;-85
2023/09/14 05:05:15;;;;;;;9.27;6.43;;;;;;;19.15;100.00;98616.13;5086536;23;20674;-86
2023/09/14 05:07:17;;;;;;;7.30;6.53;;;;;;;19.11;100.00;98612.94;5088612;23;20572;-86
2023/09/14 05:09:20;;;;;;;7.80;7.00;;;;;;;19.09;100.00;98628.13;5088664;23;21159;-85
2023/09/14 05:11:23;;;;;;;7.67;6.87;;;;;;;19.07;100.00;98624.75;5112632;23;20594;-85
2023/09/14 05:13:28;;;;;;;9.33;6.70;;;;;;;19.09;100.00;98627.28;5086968;23;20580;-85
2023/09/14 05:15:30;;;;;;;8.00;7.07;;;;;;;19.09;100.00;98616.69;5088283;23;20724;-85
2023/09/14 05:17:35;;;;;;;9.70;7.17;;;;;;;19.10;100.00;98623.66;5112716;23;20569;-85
2023/09/14 05:19:41;;;;;;;8.20;7.40;;;;;;;19.10;100.00;98627.13;5087795;23;20572;-85
2023/09/14 05:21:44;;;;;;;9.67;8.70;;;;;;;19.11;100.00;98641.16;5083708;23;21353;-86
2023/09/14 05:23:47;;;;;;;10.30;7.00;;;;;;;19.14;100.00;98635.59;5086026;23;20570;-84
2023/09/14 05:25:49;;;;;;;7.90;6.80;;;;;;;19.15;100.00;98639.91;5087057;23;20989;-87
2023/09/14 05:27:52;;;;;;;7.73;6.87;;;;;;;19.16;100.00;98638.94;5106463;23;20574;-87
2023/09/14 05:29:56;;;;;;;7.13;6.40;;;;;;;19.16;100.00;98645.06;5084017;23;21137;-86
2023/09/14 05:31:59;;;;;;;6.93;6.20;;;;;;;19.16;100.00;98645.06;5113204;23;20585;-87
2023/09/14 05:34:04;;;;;;;8.23;7.10;;;;;;;19.18;100.00;98643.09;5086443;23;20674;-87
2023/09/14 05:36:08;;;;;;;8.60;6.80;;;;;;;19.22;100.00;98641.03;5085721;23;20684;-87
2023/09/14 05:38:12;;;;;;;7.93;6.80;;;;;;;19.22;100.00;98643.66;5087560;23;20627;-87
2023/09/14 05:40:15;;;;;;;8.30;6.70;;;;;;;19.24;100.00;98642.53;5114161;23;20909;-87
2023/09/14 05:42:19;;;;;;;7.33;6.60;;;;;;;19.26;100.00;98645.03;5088999;23;20575;-87
2023/09/14 05:44:21;;;;;;;7.23;6.43;;;;;;;19.26;100.00;98645.03;5114558;23;20636;-87
2023/09/14 05:46:25;;;;;;;10.00;6.67;;;;;;;19.27;100.00;98652.81;5115267;23;20586;-87
2023/09/14 05:48:28;;;;;;;7.30;6.53;;;;;;;19.28;100.00;98656.31;5089232;23;20896;-87
2023/09/14 05:50:34;;;;;;;6.90;6.20;;;;;;;19.26;100.00;98650.31;5089376;23;20958;-87
2023/09/14 05:52:38;;;;;;;7.50;6.70;;;;;;;19.26;100.00;98648.53;5114206;23;20561;-87
2023/09/14 05:54:43;;;;;;;7.10;6.40;;;;;;;19.23;100.00;98658.53;5089316;23;20689;-87
2023/09/14 05:56:46;;;;;;;7.03;6.10;;;;;;;19.22;99.98;98651.59;5115397;23;20577;-87
2023/09/14 05:58:49;;;;;;;8.70;6.43;;;;;;;19.20;99.44;98651.75;5089110;23;20900;-86
2023/09/14 06:00:53;;;;;;;7.90;6.47;;;;;;;19.16;100.00;98652.19;5112399;23;20588;-86
2023/09/14 06:02:57;;;;;;;10.60;6.33;;;;;;;19.14;98.34;98647.03;5089345;23;20614;-87
2023/09/14 06:05:01;;;;;;;8.73;6.83;;;;;;;19.12;99.77;98651.59;5089148;23;20654;-87
2023/09/14 06:07:25;;;;;;;7.10;6.40;;;;;;;19.08;99.22;98652.06;5089411;23;20625;-86
2023/09/14 06:09:29;;;;;;;8.33;6.77;;;;;;;19.08;99.96;98660.00;5089196;23;20564;-87
2023/09/14 06:11:34;;;;;;;7.93;6.17;;;;;;;19.09;99.19;98657.22;5088906;23;20578;-87
2023/09/14 06:13:37;;;;;;;8.10;6.60;;;;;;;19.12;99.51;98659.53;5064544;23;20682;-87
2023/09/14 06:15:40;;;;;;;8.40;5.93;;;;;;;19.16;100.00;98658.28;5089131;23;21159;-87
2023/09/14 06:17:43;;;;;;;7.23;6.47;;;;;;;19.22;99.21;98664.81;5087497;23;20584;-86
2023/09/14 06:19:46;;;;;;;7.90;6.13;;;;;;;19.24;99.62;98665.50;5088734;23;20668;-86
2023/09/14 06:21:50;;;;;;;7.50;6.30;;;;;;;19.25;99.53;98665.38;5064409;23;21001;-87
2023/09/14 06:23:55;;;;;;;6.63;6.03;;;;;;;19.30;97.94;98667.59;5064235;23;20682;-86
2023/09/14 06:25:58;;;;;;;7.03;5.93;;;;;;;19.33;99.30;98672.59;5088829;23;20925;-87
2023/09/14 06:28:01;;;;;;;8.83;5.40;;;;;;;19.38;98.76;98671.19;5089045;23;20656;-87
2023/09/14 06:30:06;;;;;;;7.03;6.33;;;;;;;19.41;98.29;98670.91;5064409;23;20583;-87
2023/09/14 06:32:09;;;;;;;8.27;7.37;;;;;;;19.47;98.38;98673.78;5088785;23;21170;-87
2023/09/14 06:34:12;;;;;;;8.43;6.47;;;;;;;19.49;99.36;98665.69;5089425;23;20585;-87
2023/09/14 06:36:17;;;;;;;8.17;6.23;;;;;;;19.53;97.61;98678.50;5090586;23;20700;-87
2023/09/14 06:38:20;;;;;;;8.50;6.13;;;;;;;19.53;97.02;98675.00;5065835;23;20578;-87
2023/09/14 06:40:24;;;;;;;7.23;5.97;;;;;;;19.54;98.06;98679.31;5090878;23;20660;-87
2023/09/14 06:42:30;;;;;;;7.97;6.53;;;;;;;19.54;98.21;98677.50;5090572;23;20975;-87
2023/09/14 06:44:33;;;;;;;8.20;6.03;;;;;;;19.56;98.78;98672.91;5090910;23;20617;-87
2023/09/14 06:46:37;;;;;;;7.80;6.40;;;;;;;19.59;98.79;98680.56;5090897;23;20716;-87
2023/09/14 06:48:40;;;;;;;7.37;6.07;;;;;;;19.62;96.54;98679.41;5090471;23;20590;-87
2023/09/14 06:50:44;;;;;;;9.13;6.30;;;;;;;19.63;97.43;98681.09;5064822;23;20649;-87
2023/09/14 06:52:46;;;;;;;8.60;6.37;;;;;;;19.65;96.53;98679.97;5116478;23;20582;-86
2023/09/14 06:54:49;;;;;;;7.10;6.13;;;;;;;19.67;97.19;98677.19;5116540;23;20636;-87
2023/09/14 06:56:54;;;;;;;7.00;5.93;;;;;;;19.69;97.12;98680.50;5090543;23;20582;-87
2023/09/14 06:58:57;;;;;;;10.13;6.50;;;;;;;19.69;96.64;98678.69;5090366;23;20994;-87
2023/09/14 07:01:03;;;;;;;7.73;6.30;;;;;;;19.72;95.91;98681.03;5090335;23;20642;-87
2023/09/14 07:03:07;;;;;;;11.10;6.20;;;;;;;19.73;96.71;98681.91;5090789;23;20594;-87
2023/09/14 07:05:11;;;;;;;9.27;6.50;;;;;;;19.71;95.99;98684.69;5090464;23;20614;-86
2023/09/14 07:07:14;;;;;;;7.07;6.33;;;;;;;19.73;96.55;98682.72;5090542;23;20668;-86
2023/09/14 07:09:18;;;;;;;9.50;6.47;;;;;;;19.78;97.52;98684.94;5089117;23;20931;-87
2023/09/14 07:11:21;;;;;;;7.70;6.60;;;;;;;19.79;97.02;98682.13;5090272;23;20582;-87
2023/09/14 07:13:25;;;;;;;8.43;6.07;;;;;;;19.76;96.75;98678.97;5116668;23;20890;-87
2023/09/14 07:15:29;;;;;;;8.53;6.30;;;;;;;19.78;96.77;98679.63;5089106;23;20729;-86
2023/09/14 07:17:32;;;;;;;6.87;6.17;;;;;;;19.78;96.80;98680.47;5090424;23;20563;-87
2023/09/14 07:19:35;;;;;;;6.83;6.13;;;;;;;19.79;95.87;98684.78;5090433;23;20606;-87
2023/09/14 07:21:38;;;;;;;7.60;6.37;;;;;;;19.83;96.14;98681.69;5064613;23;20663;-87
2023/09/14 07:23:42;;;;;;;7.30;6.20;;;;;;;19.81;98.53;98685.47;5065237;23;20682;-87
2023/09/14 07:25:47;;;;;;;7.03;6.33;;;;;;;19.89;97.29;98690.88;5090209;23;20611;-86
2023/09/14 07:27:51;;;;;;;7.10;6.40;;;;;;;19.96;97.35;98690.16;5066053;23;20587;-87
2023/09/14 07:29:55;;;;;;;8.50;6.37;;;;;;;20.01;97.94;98690.56;5089042;23;20583;-87
2023/09/14 07:31:58;;;;;;;11.43;6.50;;;;;;;20.06;96.87;98698.06;5089858;23;21154;-87
2023/09/14 07:34:04;;;;;;;9.60;6.73;;;;;;;20.10;94.61;98686.16;5065837;23;20584;-86
2023/09/14 07:36:07;;;;;;;8.03;6.10;;;;;;;20.12;94.37;98690.34;5115320;23;20929;-86
2023/09/14 07:38:12;;;;;;;7.37;6.03;;;;;;;20.20;95.20;98698.38;5115990;23;20558;-87
2023/09/14 07:40:15;;;;;;;8.43;7.00;;;;;;;20.30;96.96;98693.00;5090329;23;20589;-87
2023/09/14 07:42:19;;;;;;;8.20;7.00;;;;;;;20.35;94.81;98695.06;5088621;23;20583;-87
2023/09/14 07:44:22;;;;;;;7.43;6.57;;;;;;;20.43;95.72;98696.94;5065198;23;20941;-87
2023/09/14 07:46:26;;;;;;;9.73;6.53;;;;;;;20.52;95.67;98699.56;5116539;23;20621;-86
2023/09/14 07:48:30;;;;;;;12.63;7.30;;;;;;;20.58;94.30;98701.59;5090488;23;20583;-87
2023/09/14 07:50:36;;;;;;;9.63;7.87;;;;;;;20.60;94.30;98707.56;5116280;23;20573;-87
2023/09/14 07:52:40;;;;;;;10.30;6.77;;;;;;;20.71;94.17;98703.91;5090065;23;20659;-87
2023/09/14 07:54:43;;;;;;;17.90;8.30;;;;;;;20.79;94.05;98712.75;5116186;23;20588;-87
2023/09/14 07:56:47;;;;;;;9.80;8.20;;;;;;;20.91;92.53;98714.16;5115729;23;20993;-86
2023/09/14 07:58:50;;;;;;;9.57;6.90;;;;;;;21.07;93.65;98716.97;5088618;23;20558;-87
2023/09/14 08:00:53;;;;;;;9.03;7.53;;;;;;;21.19;92.61;98713.09;5088728;23;20615;-87
2023/09/14 08:02:57;;;;;;;9.57;7.93;;;;;;;21.27;92.09;98723.75;5089808;23;20638;-87
2023/09/14 08:05:01;;;;;;;7.80;6.67;;;;;;;21.31;92.19;98715.31;5065442;23;20944;-87
2023/09/14 08:07:04;;;;;;;8.97;7.87;;;;;;;21.36;92.14;98720.97;5116216;23;20622;-87
2023/09/14 08:09:07;;;;;;;8.33;7.17;;;;;;;21.45;92.44;98726.22;5065330;23;20574;-87
2023/09/14 08:11:11;;;;;;;9.13;8.23;;;;;;;21.48;91.37;98720.59;5088995;23;20572;-87
2023/09/14 08:13:14;;;;;;;9.60;7.67;;;;;;;21.46;90.97;98722.59;5089904;23;20685;-87
2023/09/14 08:15:17;;;;;;;11.33;8.97;;;;;;;21.45;90.78;98718.25;5115945;23;20644;-87
2023/09/14 08:17:20;;;;;;;9.13;8.00;;;;;;;21.49;90.21;98722.28;5089812;23;20612;-87
2023/09/14 08:19:25;;;;;;;9.20;7.80;;;;;;;21.51;90.58;98725.59;5065682;23;20590;-87
2023/09/14 08:21:28;;;;;;;8.30;7.43;;;;;;;21.65;91.62;98724.19;5065450;23;20593;-87
2023/09/14 08:23:32;;;;;;;8.33;7.20;;;;;;;21.75;90.34;98728.38;5090370;23;20677;-87
2023/09/14 08:25:35;;;;;;;10.90;7.13;;;;;;;21.87;89.43;98721.81;5089874;23;20583;-87
2023/09/14 08:27:39;;;;;;;9.43;7.80;;;;;;;21.94;90.81;98725.50;5088329;23;20579;-87
2023/09/14 08:29:41;;;;;;;9.27;8.13;;;;;;;21.94;88.63;98730.81;5064845;23;20640;-87
2023/09/14 08:31:45;;;;;;;9.67;7.30;;;;;;;21.91;87.43;98725.81;5089506;23;20588;-87
2023/09/14 08:33:48;;;;;;;9.03;7.90;;;;;;;21.93;88.26;98729.16;5089214;23;20592;-87
2023/09/14 08:35:53;;;;;;;9.27;7.13;;;;;;;21.94;89.58;98730.81;5062219;23;20596;-87
2023/09/14 08:37:56;;;;;;;9.00;7.60;;;;;;;21.92;88.62;98732.78;5114886;23;20602;-87
2023/09/14 08:39:59;;;;;;;8.30;7.27;;;;;;;21.94;89.16;98738.78;5088441;23;20640;-87
2023/09/14 08:42:02;;;;;;;9.37;7.97;;;;;;;21.97;89.40;98731.31;5114649;23;20580;-87
2023/09/14 08:44:06;;;;;;;10.37;7.60;;;;;;;21.95;88.09;98732.47;5063540;23;20641;-87
2023/09/14 08:46:11;;;;;;;10.20;8.70;;;;;;;21.93;87.42;98729.16;5089386;23;20593;-88
2023/09/14 08:48:16;;;;;;;8.83;7.07;;;;;;;21.94;88.50;98733.47;5063891;23;21043;-87
2023/09/14 08:50:22;;;;;;;8.40;7.50;;;;;;;21.91;87.98;98729.31;5089052;23;20623;-87
2023/09/14 08:52:27;;;;;;;10.47;8.23;;;;;;;21.92;88.11;98732.78;5089498;23;20593;-87
2023/09/14 08:54:30;;;;;;;8.57;7.67;;;;;;;21.95;89.67;98737.78;5089017;23;20682;-87
2023/09/14 08:56:34;;;;;;;8.87;7.70;;;;;;;21.97;87.99;98733.16;5088811;23;21237;-87
2023/09/14 08:58:37;;;;;;;9.80;8.47;;;;;;;21.97;88.80;98728.66;5089582;23;21191;-87
2023/09/14 09:00:41;;;;;;;9.20;7.60;;;;;;;22.06;88.25;98734.88;5063423;23;21424;-87
2023/09/14 09:02:45;;;;;;;9.63;7.70;;;;;;;22.13;87.94;98730.56;5114889;23;20577;-87
2023/09/14 09:04:48;;;;;;;11.23;7.97;;;;;;;22.14;87.82;98732.22;5089083;23;20607;-87
2023/09/14 09:06:52;;;;;;;10.43;8.00;;;;;;;22.11;87.10;98728.06;5115641;23;20591;-87
2023/09/14 09:08:58;;;;;;;9.47;7.40;;;;;;;22.18;88.17;98733.59;5089153;23;20631;-87
2023/09/14 09:11:03;;;;;;;7.47;6.67;;;;;;;22.25;87.72;98732.78;5088867;23;20588;-87
2023/09/14 09:13:06;;;;;;;8.47;6.73;;;;;;;22.34;86.41;98732.66;5089313;23;20632;-87
2023/09/14 09:15:10;;;;;;;9.70;6.77;;;;;;;22.57;86.31;98736.38;5065055;23;20598;-87
2023/09/14 09:17:13;;;;;;;8.50;5.80;;;;;;;22.72;84.70;98724.09;5087721;23;20680;-87
2023/09/14 09:19:17;;;;;;;6.73;5.80;;;;;;;22.78;84.60;98728.78;5064395;23;20578;-87
2023/09/14 09:21:27;;;;;;;8.43;7.10;;;;;;;22.78;83.03;98724.28;5088968;23;20616;-87
2023/09/14 09:23:30;;;;;;;7.50;6.70;;;;;;;23.05;82.59;98723.13;5088968;23;20965;-87
2023/09/14 09:25:44;;;;;;;9.30;7.10;;;;;;;23.15;81.59;98723.81;5088873;23;20916;-87
2023/09/14 09:27:48;;;;;;;8.50;6.23;;;;;;;23.14;80.54;98716.81;5089169;23;20578;-87
2023/09/14 09:29:51;;;;;;;8.50;6.40;;;;;;;23.10;80.65;98720.81;5088053;23;20588;-87
2023/09/14 09:31:54;;;;;;;7.67;5.93;;;;;;;23.05;80.59;98720.47;5064322;23;20626;-87
2023/09/14 09:33:58;;;;;;;7.73;6.23;;;;;;;22.99;81.27;98723.84;5087745;23;20661;-87
2023/09/14 09:36:02;;;;;;;7.00;5.77;;;;;;;22.96;81.32;98716.19;5114888;23;20612;-87
2023/09/14 09:38:12;;;;;;;8.27;6.20;;;;;;;22.92;81.67;98712.97;5114727;23;20614;-87